Time;durP1;ratioP1;P1;durP2;ratioP2;P2;SDS_P1;SDS_P2;PMS_P1;PMS_P2;Temp;Humidity;BMP_temperature;BMP_pressure;BME280_temperature;BME280_humidity;BME280_pressure;Samples;Min_cycle;Max_cycle;Signal;HPM_P1;HPM_P2
2023/12/05 00:02:24;;;;;;;77.20;51.00;;;;;;;-4.83;100.00;100428.24;108205;1287;25090;-82
2023/12/05 00:05:29;;;;;;;82.40;54.50;;;;;;;-4.92;100.00;100430.24;108417;1286;22278;-81
2023/12/05 00:08:08;;;;;;;90.10;52.60;;;;;;;-5.01;100.00;100427.78;108392;1287;22010;-80
2023/12/05 00:10:48;;;;;;;87.70;52.70;;;;;;;-5.09;100.00;100426.21;108302;1289;22023;-79
2023/12/05 00:13:39;;;;;;;82.20;53.60;;;;;;;-5.14;100.00;100427.77;108293;1288;22098;-81
2023/12/05 00:16:36;;;;;;;86.70;56.90;;;;;;;-5.19;100.00;100419.15;108671;1282;24525;-80
2023/12/05 00:19:34;;;;;;;79.90;51.20;;;;;;;-5.24;100.00;100412.39;108452;1277;22016;-80
2023/12/05 00:22:49;;;;;;;83.80;54.40;;;;;;;-5.28;100.00;100411.28;108933;1278;23797;-81
2023/12/05 00:25:26;;;;;;;83.20;55.60;;;;;;;-5.30;100.00;100412.94;108894;1277;21993;-80
2023/12/05 00:28:27;;;;;;;77.80;52.40;;;;;;;-5.28;100.00;100410.10;108980;1278;21995;-78
2023/12/05 00:31:20;;;;;;;69.80;47.40;;;;;;;-5.25;100.00;100414.23;109485;1272;22448;-80
2023/12/05 00:34:18;;;;;;;72.40;47.50;;;;;;;-5.24;100.00;100413.24;109513;1272;22003;-81
2023/12/05 00:37:11;;;;;;;117.10;79.70;;;;;;;-5.24;100.00;100411.39;109904;1267;21992;-80
2023/12/05 00:39:47;;;;;;;96.90;58.70;;;;;;;-5.23;100.00;100409.21;109440;1270;23637;-80
2023/12/05 00:42:45;;;;;;;64.20;46.40;;;;;;;-5.22;100.00;100413.64;109784;1263;25024;-82
2023/12/05 00:46:10;;;;;;;69.00;47.60;;;;;;;-5.25;100.00;100412.88;110030;1268;22049;-79
2023/12/05 00:49:26;;;;;;;74.80;46.70;;;;;;;-5.34;100.00;100413.34;109764;1269;23031;-82
2023/12/05 00:53:06;;;;;;;;;;;;;;;;;;;;;
2023/12/05 00:56:45;;;;;;;;;;;;;;;-5.44;100.00;100408.48;110102;1268;24419;-79
2023/12/05 00:59:53;;;;;;;72.60;44.10;;;;;;;-5.52;100.00;100408.43;109066;1278;22026;-81
2023/12/05 01:03:11;;;;;;;73.50;48.30;;;;;;;-5.53;100.00;100402.30;107952;1292;22073;-82
2023/12/05 01:06:25;;;;;;;69.20;47.30;;;;;;;-5.52;100.00;100405.39;108019;1292;22023;-80
2023/12/05 01:09:25;;;;;;;76.70;51.40;;;;;;;-5.51;100.00;100406.92;107859;1293;22309;-80
2023/12/05 01:12:51;;;;;;;77.00;51.00;;;;;;;-5.52;100.00;100406.40;107875;1294;22011;-80
2023/12/05 01:15:46;;;;;;;76.10;50.70;;;;;;;-5.51;100.00;100405.05;107846;1294;22024;-80
2023/12/05 01:19:07;;;;;;;70.50;47.50;;;;;;;-5.67;100.00;100379.17;107942;1294;22030;-80
2023/12/05 01:26:35;;;;;;;69.70;46.80;;;;;;;-5.63;100.00;100404.21;107953;1292;23158;-80
2023/12/05 01:29:44;;;;;;;73.20;47.60;;;;;;;-5.65;100.00;100401.27;108289;1289;22496;-79
2023/12/05 01:33:25;;;;;;;70.00;47.50;;;;;;;-5.66;100.00;100397.85;107983;1286;22015;-80
2023/12/05 01:36:30;;;;;;;74.50;46.70;;;;;;;-5.70;100.00;100392.83;108650;1279;22143;-81
2023/12/05 01:43:30;;;;;;;68.60;49.40;;;;;;;-5.78;100.00;100388.36;108699;1282;22071;-81
2023/12/05 01:46:30;;;;;;;72.90;49.80;;;;;;;-5.84;100.00;100382.23;108702;1282;22350;-81
2023/12/05 01:49:17;;;;;;;73.00;51.20;;;;;;;-5.85;100.00;100380.69;108727;1282;22094;-82
2023/12/05 01:56:24;;;;;;;82.00;52.30;;;;;;;-5.92;100.00;100379.29;108679;1282;22172;-83
2023/12/05 01:59:22;;;;;;;65.30;47.20;;;;;;;-5.97;100.00;100377.81;108537;1285;22069;-82
2023/12/05 02:02:04;;;;;;;67.20;44.70;;;;;;;-5.98;100.00;100371.87;108622;1285;22030;-80
2023/12/05 02:05:13;;;;;;;72.80;50.30;;;;;;;-5.99;100.00;100367.95;108608;1285;23160;-81
2023/12/05 02:08:10;;;;;;;64.40;46.70;;;;;;;-5.99;100.00;100369.98;108634;1285;22106;-83
2023/12/05 02:11:28;;;;;;;79.70;50.60;;;;;;;-6.00;100.00;100377.58;108429;1288;23669;-83
2023/12/05 02:14:32;;;;;;;72.20;47.20;;;;;;;-6.01;100.00;100373.14;108280;1290;24961;-82
2023/12/05 02:18:03;;;;;;;63.40;46.10;;;;;;;-6.02;100.00;100369.39;107981;1292;23033;-82
2023/12/05 02:21:37;;;;;;;68.50;49.60;;;;;;;-6.02;100.00;100367.85;108004;1292;23650;-81
2023/12/05 02:25:13;;;;;;;67.20;46.40;;;;;;;-6.10;100.00;100348.64;108056;1292;23787;-83
2023/12/05 02:28:14;;;;;;;66.40;47.20;;;;;;;-6.21;100.00;100332.21;108180;1292;22022;-83
2023/12/05 02:31:44;;;;;;;68.80;49.30;;;;;;;-6.04;100.00;100358.28;108612;1279;22002;-81
2023/12/05 02:34:57;;;;;;;77.20;51.60;;;;;;;-6.01;100.00;100355.50;108989;1274;21990;-81
2023/12/05 02:38:32;;;;;;;69.30;47.30;;;;;;;-6.01;100.00;100351.80;109279;1271;22333;-82
2023/12/05 02:42:16;;;;;;;74.90;49.40;;;;;;;-6.02;100.00;100358.02;109318;1273;22012;-81
2023/12/05 02:45:36;;;;;;;69.10;48.00;;;;;;;-6.05;100.00;100366.40;109334;1274;21970;-81
2023/12/05 02:48:40;;;;;;;73.60;53.00;;;;;;;-6.08;100.00;100364.96;109458;1274;22061;-81
2023/12/05 02:51:47;;;;;;;67.90;50.20;;;;;;;-6.21;100.00;100340.71;109241;1274;22032;-82
2023/12/05 02:58:26;;;;;;;68.80;49.20;;;;;;;-6.09;100.00;100355.95;108735;1283;21995;-82
2023/12/05 03:01:49;;;;;;;71.00;51.50;;;;;;;-6.10;100.00;100359.48;108871;1278;23055;-81
2023/12/05 03:04:53;;;;;;;;;;;;;;;;;;;;;
2023/12/05 03:08:21;;;;;;;73.40;53.20;;;;;;;-6.11;100.00;100351.83;108377;1288;22014;-81
2023/12/05 03:12:12;;;;;;;69.10;50.60;;;;;;;-6.12;100.00;100351.13;107990;1293;22126;-83
2023/12/05 03:15:20;;;;;;;73.00;48.60;;;;;;;-6.14;100.00;100352.61;108038;1288;23174;-82
2023/12/05 03:18:12;;;;;;;70.30;49.10;;;;;;;-6.12;100.00;100355.02;107998;1291;22115;-81
2023/12/05 03:21:14;;;;;;;76.70;49.90;;;;;;;-6.11;100.00;100360.16;107738;1296;22393;-82
2023/12/05 03:24:20;;;;;;;;;;;;;;;;;;;;;
2023/12/05 03:31:03;;;;;;;74.60;51.20;;;;;;;-6.13;100.00;100346.20;108661;1285;22790;-83
2023/12/05 03:34:26;;;;;;;67.20;46.70;;;;;;;-6.28;100.00;100329.14;108313;1289;22991;-81
2023/12/05 03:38:07;;;;;;;69.00;46.70;;;;;;;-6.21;100.00;100342.21;108724;1282;23069;-82
2023/12/05 03:46:17;;;;;;;70.60;48.30;;;;;;;-6.25;100.00;100348.02;109107;1278;23171;-82
2023/12/05 03:49:35;;;;;;;66.70;48.10;;;;;;;-6.25;100.00;100347.67;109051;1277;21991;-82
2023/12/05 03:53:15;;;;;;;;;;;;;;;;;;;;;
2023/12/05 04:12:03;;;;;;;68.80;54.20;;;;;;;-4.82;100.00;100325.98;110562;1253;549893;-82
2023/12/05 04:15:29;;;;;;;76.30;56.70;;;;;;;-4.70;100.00;100325.83;107098;1243;6988879;-82
2023/12/05 04:19:19;;;;;;;77.20;56.40;;;;;;;-5.39;100.00;100328.20;112130;1248;21961;-79
2023/12/05 04:22:36;;;;;;;111.20;80.80;;;;;;;-5.76;100.00;100327.71;112365;1245;21955;-80
2023/12/05 04:26:00;;;;;;;133.00;74.80;;;;;;;-5.97;100.00;100329.68;112364;1245;21981;-81
2023/12/05 04:29:17;;;;;;;77.20;55.20;;;;;;;-6.11;100.00;100328.27;112404;1245;22298;-81
2023/12/05 04:32:30;;;;;;;;;;;;;;;;;;;;;
2023/12/05 04:35:24;;;;;;;189.30;107.20;;;;;;;-6.32;100.00;100328.16;111780;1251;22019;-81
2023/12/05 04:38:46;;;;;;;267.50;152.00;;;;;;;-6.39;100.00;100329.14;111974;1247;22054;-83
2023/12/05 04:41:43;;;;;;;105.10;64.10;;;;;;;-6.45;100.00;100328.80;112476;1243;22580;-82
2023/12/05 04:44:45;;;;;;;97.00;61.50;;;;;;;-6.51;100.00;100323.70;112281;1243;21969;-83
2023/12/05 04:47:41;;;;;;;79.10;53.80;;;;;;;-6.56;100.00;100321.67;112570;1243;23758;-81
2023/12/05 04:50:48;;;;;;;152.70;87.20;;;;;;;-6.60;100.00;100322.91;112803;1239;23771;-83
2023/12/05 04:54:11;;;;;;;177.50;103.30;;;;;;;-6.64;100.00;100319.76;112536;1244;23707;-82
2023/12/05 04:57:32;;;;;;;;;;;;;;;;;;;;;
2023/12/05 05:00:53;;;;;;;84.70;55.10;;;;;;;-6.70;100.00;100313.48;112498;1244;21962;-82
2023/12/05 05:03:49;;;;;;;103.90;60.10;;;;;;;-6.71;100.00;100313.13;112726;1242;23685;-81
2023/12/05 05:06:51;;;;;;;100.50;59.60;;;;;;;-6.70;100.00;100313.97;113174;1238;22693;-81
2023/12/05 05:10:16;;;;;;;97.60;61.20;;;;;;;-6.70;100.00;100311.27;112708;1236;23030;-83
2023/12/05 05:13:27;;;;;;;108.00;76.80;;;;;;;-6.68;100.00;100315.05;113029;1239;23101;-83
2023/12/05 05:17:12;;;;;;;113.40;72.20;;;;;;;-6.69;100.00;100311.98;112530;1244;22341;-82
2023/12/05 05:20:36;;;;;;;;;;;;;;;;;;;;;
2023/12/05 05:24:15;;;;;;;;;;;;;;;;;;;;;
2023/12/05 05:28:14;;;;;;;130.10;76.80;;;;;;;-6.65;100.00;100316.34;111234;1257;23597;-82
2023/12/05 05:32:22;;;;;;;114.50;74.70;;;;;;;-6.64;100.00;100319.39;109670;1270;22774;-80
2023/12/05 05:36:04;;;;;;;122.60;79.90;;;;;;;-6.62;100.00;100323.37;109519;1268;22010;-81
2023/12/05 05:39:15;;;;;;;102.80;65.40;;;;;;;-6.64;100.00;100324.82;110304;1267;21985;-80
2023/12/05 05:42:08;;;;;;;107.70;67.50;;;;;;;-6.67;100.00;100319.48;110340;1264;21973;-79
2023/12/05 05:45:24;;;;;;;104.90;63.20;;;;;;;-6.68;100.00;100320.13;110011;1268;22003;-79
2023/12/05 05:53:22;;;;;;;;;;;;;;;;;;;;;
2023/12/05 05:57:19;;;;;;;93.90;67.90;;;;;;;-6.56;100.00;100312.90;107944;1289;548111;-81
2023/12/05 06:01:11;;;;;;;91.30;60.20;;;;;;;-6.58;100.00;100315.02;109155;1276;23083;-82
2023/12/05 06:04:58;;;;;;;99.50;64.00;;;;;;;-6.65;100.00;100315.48;109549;1273;22252;-79
2023/12/05 06:08:13;;;;;;;98.30;62.20;;;;;;;-6.69;100.00;100316.55;109638;1269;22487;-80
2023/12/05 06:12:07;;;;;;;;;;;;;;;;;;;;;
2023/12/05 06:15:02;;;;;;;100.80;68.50;;;;;;;-6.75;100.00;100316.70;108962;1282;22062;-81
2023/12/05 06:17:55;;;;;;;106.70;66.70;;;;;;;-6.75;100.00;100320.09;108865;1282;22484;-79
2023/12/05 06:20:54;;;;;;;111.00;66.30;;;;;;;-6.73;100.00;100319.81;108989;1280;23738;-82
2023/12/05 06:24:29;;;;;;;;;;;;;;;;;;;;;
2023/12/05 06:27:50;;;;;;;97.20;63.40;;;;;;;-6.80;100.00;100323.48;108852;1284;23695;-81
2023/12/05 06:31:01;;;;;;;98.30;63.60;;;;;;;-6.84;100.00;100318.77;109159;1278;22024;-83
2023/12/05 06:35:02;;;;;;;95.10;62.90;;;;;;;-6.86;100.00;100316.02;108503;1288;22017;-81
2023/12/05 06:38:07;;;;;;;87.40;57.40;;;;;;;-6.89;100.00;100321.32;108833;1279;23719;-82
2023/12/05 06:41:25;;;;;;;;;;;;;;;;;;;;;
2023/12/05 06:44:08;;;;;;;114.30;68.90;;;;;;;-6.88;100.00;100324.92;108710;1285;22059;-81
2023/12/05 06:46:57;;;;;;;115.10;70.80;;;;;;;-6.86;100.00;100327.51;108689;1281;21992;-79
2023/12/05 06:50:00;;;;;;;125.70;70.70;;;;;;;-6.82;100.00;100328.98;108749;1281;23905;-80
2023/12/05 06:52:31;;;;;;;107.10;65.90;;;;;;;-6.78;100.00;100327.77;108945;1281;23075;-78
2023/12/05 06:55:09;;;;;;;93.30;62.50;;;;;;;-6.74;100.00;100325.19;108652;1281;21992;-79
2023/12/05 06:57:37;;;;;;;91.20;61.90;;;;;;;-6.71;100.00;100326.98;108766;1281;22159;-77
2023/12/05 07:00:11;;;;;;;92.10;60.90;;;;;;;-6.67;100.00;100329.48;108835;1280;21996;-80
2023/12/05 07:02:48;;;;;;;110.90;69.10;;;;;;;-6.62;100.00;100329.11;108845;1279;22007;-83
2023/12/05 07:05:48;;;;;;;101.30;66.10;;;;;;;-6.58;100.00;100322.98;108861;1279;21995;-80
2023/12/05 07:08:27;;;;;;;84.70;56.00;;;;;;;-6.54;100.00;100319.37;108866;1279;22765;-83
2023/12/05 07:10:57;;;;;;;93.10;62.40;;;;;;;-6.50;100.00;100324.73;108930;1275;22137;-79
2023/12/05 07:13:36;;;;;;;92.70;65.20;;;;;;;-6.46;100.00;100327.75;109262;1260;23742;-81
2023/12/05 07:16:38;;;;;;;95.40;63.70;;;;;;;-6.43;100.00;100325.64;110669;1260;22446;-80
2023/12/05 07:19:11;;;;;;;98.20;66.50;;;;;;;-6.42;100.00;100319.39;110537;1264;21967;-77
2023/12/05 07:22:14;;;;;;;97.30;63.20;;;;;;;-6.42;100.00;100323.14;110030;1264;21968;-77
2023/12/05 07:24:50;;;;;;;98.60;63.30;;;;;;;-6.42;100.00;100324.84;109429;1270;22012;-82
2023/12/05 07:27:38;;;;;;;98.90;66.20;;;;;;;-6.41;100.00;100323.84;109352;1270;21982;-78
2023/12/05 07:30:35;;;;;;;106.10;65.40;;;;;;;-6.47;100.00;100319.08;109485;1268;23643;-80
2023/12/05 07:33:36;;;;;;;101.50;66.70;;;;;;;-6.44;100.00;100320.35;109803;1256;23017;-79
2023/12/05 07:36:17;;;;;;;102.50;65.80;;;;;;;-6.33;100.00;100332.73;109392;1274;21986;-80
2023/12/05 07:39:10;;;;;;;114.50;70.20;;;;;;;-6.27;100.00;100334.08;109663;1271;21975;-77
2023/12/05 07:41:43;;;;;;;116.50;71.90;;;;;;;-6.20;100.00;100329.20;109330;1272;21989;-78
2023/12/05 07:44:23;;;;;;;129.30;74.10;;;;;;;-6.15;100.00;100323.94;110102;1264;23622;-77
2023/12/05 07:46:58;;;;;;;125.90;75.00;;;;;;;-6.11;100.00;100321.69;110121;1265;22657;-75
2023/12/05 07:49:31;;;;;;;101.60;68.10;;;;;;;-6.04;100.00;100325.79;109988;1265;22382;-76
2023/12/05 07:52:04;;;;;;;109.20;70.10;;;;;;;-5.97;100.00;100329.20;110138;1265;21975;-77
2023/12/05 07:54:39;;;;;;;102.50;68.10;;;;;;;-5.90;100.00;100327.67;110319;1261;21971;-78
2023/12/05 07:57:30;;;;;;;104.70;69.50;;;;;;;-5.83;100.00;100325.48;110289;1265;22012;-76
2023/12/05 08:00:14;;;;;;;104.00;69.10;;;;;;;-5.79;100.00;100323.06;109986;1265;21991;-80
2023/12/05 08:02:45;;;;;;;95.80;63.70;;;;;;;-5.74;100.00;100325.73;110262;1263;22435;-77
2023/12/05 08:05:18;;;;;;;;;;;;;;;-5.69;100.00;100323.52;110246;1266;23031;-76
2023/12/05 08:07:55;;;;;;;99.50;63.40;;;;;;;-5.70;100.00;100321.11;110024;1266;23590;-76
2023/12/05 08:10:36;;;;;;;92.20;63.70;;;;;;;-5.64;100.00;100321.09;110140;1266;21980;-77
2023/12/05 08:13:23;;;;;;;101.20;66.20;;;;;;;-5.56;100.00;100320.30;110088;1266;21980;-76
2023/12/05 08:16:25;;;;;;;98.90;65.40;;;;;;;-5.48;100.00;100318.81;109683;1268;21979;-77
2023/12/05 08:19:05;;;;;;;92.20;63.10;;;;;;;-5.44;100.00;100309.41;109921;1265;23031;-78
2023/12/05 08:21:49;;;;;;;95.00;65.10;;;;;;;-5.39;100.00;100307.84;109732;1268;21978;-77
2023/12/05 08:24:37;;;;;;;96.40;66.50;;;;;;;-5.33;100.00;100309.89;109426;1272;23118;-80
2023/12/05 08:27:28;;;;;;;101.80;69.70;;;;;;;-5.25;100.00;100315.34;108913;1276;21989;-78
2023/12/05 08:30:13;;;;;;;103.50;71.20;;;;;;;-5.30;100.00;100304.88;108579;1280;23174;-76
2023/12/05 08:32:50;;;;;;;101.00;70.10;;;;;;;-5.17;100.00;100310.80;108337;1285;23701;-76
2023/12/05 08:35:33;;;;;;;91.70;67.20;;;;;;;-5.14;100.00;100312.90;108643;1281;22092;-76
2023/12/05 08:38:11;;;;;;;;;;;;;;;-5.12;100.00;100315.33;108539;1281;22857;-77
2023/12/05 08:40:53;;;;;;;91.20;60.90;;;;;;;-5.18;100.00;100309.08;108589;1274;22621;-77
2023/12/05 08:43:37;;;;;;;96.10;65.90;;;;;;;-5.16;100.00;100313.36;108936;1277;22782;-77
2023/12/05 08:46:18;;;;;;;106.00;68.80;;;;;;;-5.11;100.00;100315.36;109439;1272;22734;-77
2023/12/05 08:49:16;;;;;;;104.00;73.90;;;;;;;-5.08;100.00;100315.59;109709;1267;23801;-76
2023/12/05 08:51:59;;;;;;;108.80;73.60;;;;;;;-5.07;100.00;100312.40;110263;1261;22025;-77
2023/12/05 08:54:38;;;;;;;119.40;82.40;;;;;;;-5.05;100.00;100313.98;110296;1259;22002;-79
2023/12/05 08:57:31;;;;;;;115.10;76.60;;;;;;;-5.01;100.00;100317.29;110711;1260;23752;-77
2023/12/05 09:00:09;;;;;;;112.10;78.90;;;;;;;-4.97;100.00;100318.77;110637;1259;23638;-78
2023/12/05 09:03:18;;;;;;;100.90;72.60;;;;;;;-4.88;100.00;100316.08;110803;1259;23587;-78
2023/12/05 09:06:38;;;;;;;114.10;78.20;;;;;;;-4.80;100.00;100312.52;110690;1260;21992;-77
2023/12/05 09:09:44;;;;;;;103.10;69.00;;;;;;;-4.73;100.00;100310.16;110080;1260;23524;-77
2023/12/05 09:12:57;;;;;;;90.00;62.80;;;;;;;-4.59;100.00;100306.93;109365;1273;23748;-77
2023/12/05 09:15:42;;;;;;;97.10;65.50;;;;;;;-4.43;100.00;100305.42;108859;1278;21997;-76
2023/12/05 09:18:13;;;;;;;94.40;67.40;;;;;;;-4.31;100.00;100311.95;108990;1278;24305;-76
2023/12/05 09:20:46;;;;;;;94.00;65.40;;;;;;;-4.26;100.00;100311.38;108920;1278;22505;-76
2023/12/05 09:23:23;;;;;;;93.50;66.90;;;;;;;-4.25;100.00;100314.96;108854;1272;21987;-76
2023/12/05 09:25:59;;;;;;;95.20;66.00;;;;;;;-4.22;100.00;100314.52;108894;1278;22165;-76
2023/12/05 09:28:41;;;;;;;82.60;58.60;;;;;;;-4.19;100.00;100313.73;108858;1277;21996;-77
2023/12/05 09:31:50;;;;;;;91.30;61.40;;;;;;;-4.14;100.00;100315.04;108870;1278;22001;-77
2023/12/05 09:34:47;;;;;;;82.40;56.40;;;;;;;-4.04;100.00;100314.22;109362;1273;24320;-79
2023/12/05 09:38:00;;;;;;;90.10;59.30;;;;;;;-3.90;100.00;100307.02;109436;1271;21986;-77
2023/12/05 09:41:29;;;;;;;85.40;57.60;;;;;;;-3.66;100.00;100302.06;109373;1273;21987;-79
2023/12/05 09:44:29;;;;;;;86.30;61.00;;;;;;;-3.44;100.00;100296.17;109904;1267;21984;-77
2023/12/05 09:47:36;;;;;;;87.80;62.60;;;;;;;-3.33;100.00;100289.56;110352;1259;22001;-77
2023/12/05 09:50:22;;;;;;;76.90;56.20;;;;;;;-3.30;100.00;100284.00;110760;1259;21985;-78
2023/12/05 09:53:13;;;;;;;77.60;58.30;;;;;;;-3.31;100.00;100277.33;110693;1259;22098;-79
2023/12/05 09:55:48;;;;;;;85.00;58.40;;;;;;;-3.27;100.00;100272.13;110805;1259;22682;-78
2023/12/05 09:58:44;;;;;;;119.80;82.60;;;;;;;-3.13;100.00;100272.70;110781;1259;22313;-77
2023/12/05 10:01:26;;;;;;;81.40;59.50;;;;;;;-2.99;100.00;100271.58;110837;1259;23786;-78
2023/12/05 10:04:20;;;;;;;79.80;59.10;;;;;;;-2.86;100.00;100269.73;110751;1259;22010;-76
2023/12/05 10:07:03;;;;;;;93.40;64.90;;;;;;;-2.75;100.00;100265.48;110062;1266;21955;-77
2023/12/05 10:09:43;;;;;;;90.50;61.20;;;;;;;-2.64;100.00;100257.80;110332;1266;22369;-76
2023/12/05 10:12:36;;;;;;;88.40;60.10;;;;;;;-2.58;100.00;100251.74;110027;1266;22042;-76
2023/12/05 10:15:23;;;;;;;76.90;56.50;;;;;;;-2.56;100.00;100247.17;109565;1269;21976;-77
2023/12/05 10:18:27;;;;;;;86.90;62.60;;;;;;;-2.65;100.00;100246.54;109643;1270;21976;-76
2023/12/05 10:21:13;;;;;;;78.20;56.40;;;;;;;-2.67;100.00;100248.37;109575;1269;21998;-77
2023/12/05 10:24:19;;;;;;;76.00;56.60;;;;;;;-2.63;100.00;100249.96;109895;1264;22290;-77
2023/12/05 10:27:15;;;;;;;75.50;58.40;;;;;;;-2.58;100.00;100245.78;110409;1263;22411;-76
2023/12/05 10:30:23;;;;;;;75.90;58.00;;;;;;;-2.49;100.00;100240.61;110313;1261;22973;-76
2023/12/05 10:33:39;;;;;;;79.30;58.60;;;;;;;-2.45;100.00;100240.84;109769;1270;21997;-75
2023/12/05 10:36:29;;;;;;;104.70;74.60;;;;;;;-2.39;100.00;100237.34;109560;1269;21975;-78
2023/12/05 10:40:26;;;;;;;;;;;;;;;;;;;;;
2023/12/05 10:43:12;;;;;;;70.10;53.50;;;;;;;-2.48;100.00;100224.80;110086;1265;23735;-76
2023/12/05 10:46:20;;;;;;;75.20;56.10;;;;;;;-2.37;100.00;100234.30;109246;1272;21983;-76
2023/12/05 10:49:25;;;;;;;87.90;65.60;;;;;;;-2.32;100.00;100237.10;109246;1274;23609;-77
2023/12/05 10:52:12;;;;;;;81.30;58.50;;;;;;;-2.17;100.00;100234.21;109163;1274;24373;-75
2023/12/05 10:55:10;;;;;;;66.80;53.40;;;;;;;-1.96;100.00;100225.58;108877;1279;21989;-75
2023/12/05 10:58:07;;;;;;;71.80;54.60;;;;;;;-1.90;100.00;100227.70;108902;1279;21988;-76
2023/12/05 11:01:02;;;;;;;71.90;55.10;;;;;;;-1.97;100.00;100223.37;108717;1278;22773;-75
2023/12/05 11:03:42;;;;;;;73.90;53.50;;;;;;;-2.20;100.00;100205.02;108819;1275;23640;-79
2023/12/05 11:06:18;;;;;;;74.80;55.60;;;;;;;-2.14;100.00;100227.27;108713;1280;23619;-78
2023/12/05 11:09:12;;;;;;;70.50;52.10;;;;;;;-2.19;100.00;100226.86;108856;1281;22082;-77
2023/12/05 11:12:44;;;;;;;70.70;53.60;;;;;;;-2.22;100.00;100225.11;109444;1269;21988;-77
2023/12/05 11:15:41;;;;;;;68.00;51.30;;;;;;;-2.34;100.00;100219.35;109173;1275;23685;-77
2023/12/05 11:18:56;;;;;;;81.80;55.60;;;;;;;-2.35;100.00;100221.21;108701;1281;22040;-78
2023/12/05 11:22:12;;;;;;;70.90;53.60;;;;;;;-2.39;100.00;100220.64;108797;1280;21997;-77
2023/12/05 11:25:30;;;;;;;69.60;52.10;;;;;;;-2.46;100.00;100221.58;108855;1273;23661;-76
2023/12/05 11:29:12;;;;;;;73.10;54.90;;;;;;;-2.52;100.00;100221.33;108834;1278;22009;-81
2023/12/05 11:32:46;;;;;;;76.40;54.00;;;;;;;-2.59;100.00;100221.23;109133;1279;23722;-80
2023/12/05 11:36:24;;;;;;;70.70;54.10;;;;;;;-2.65;100.00;100218.08;108940;1270;23001;-78
2023/12/05 11:39:23;;;;;;;77.90;56.10;;;;;;;-2.64;100.00;100218.10;109463;1270;21999;-79
2023/12/05 11:42:34;;;;;;;74.80;55.10;;;;;;;-2.64;100.00;100217.23;109534;1270;21994;-76
2023/12/05 11:45:28;;;;;;;92.50;68.30;;;;;;;-2.62;100.00;100216.25;109454;1270;22001;-78
2023/12/05 11:48:29;;;;;;;78.50;59.60;;;;;;;-2.57;100.00;100214.11;109093;1273;23860;-78
2023/12/05 11:51:43;;;;;;;82.90;59.90;;;;;;;-2.53;100.00;100211.60;109346;1273;23832;-76
2023/12/05 11:54:23;;;;;;;75.60;52.30;;;;;;;-2.54;100.00;100207.16;109420;1273;23712;-76
2023/12/05 11:57:39;;;;;;;71.90;53.50;;;;;;;-2.53;100.00;100201.90;109301;1273;21991;-77
2023/12/05 12:00:30;;;;;;;74.30;53.20;;;;;;;-2.50;100.00;100198.18;109096;1273;22037;-77
2023/12/05 12:03:16;;;;;;;69.60;53.80;;;;;;;-2.49;100.00;100196.31;109388;1272;23638;-78
2023/12/05 12:06:05;;;;;;;74.80;55.40;;;;;;;-2.50;100.00;100191.18;109926;1260;21954;-77
2023/12/05 12:09:00;;;;;;;78.10;57.50;;;;;;;-2.52;100.00;100189.11;110530;1260;23738;-76
2023/12/05 12:11:39;;;;;;;73.40;55.80;;;;;;;-2.54;100.00;100188.25;110159;1262;23747;-78
2023/12/05 12:14:18;;;;;;;72.50;54.20;;;;;;;-2.53;100.00;100183.83;110618;1262;21972;-78
2023/12/05 12:16:57;;;;;;;78.10;56.50;;;;;;;-2.61;100.00;100174.69;110577;1262;23027;-79
2023/12/05 12:19:47;;;;;;;68.20;53.10;;;;;;;-2.53;100.00;100192.70;110622;1262;23650;-77
2023/12/05 12:22:23;;;;;;;76.80;56.80;;;;;;;-2.53;100.00;100187.23;110159;1262;23721;-78
2023/12/05 12:25:18;;;;;;;72.40;53.00;;;;;;;-2.52;100.00;100180.60;110522;1262;21980;-76
2023/12/05 12:27:58;;;;;;;75.50;55.10;;;;;;;-2.49;100.00;100178.26;109626;1269;21946;-76
2023/12/05 12:31:26;;;;;;;72.20;56.90;;;;;;;-2.48;100.00;100177.42;110608;1262;21972;-77
2023/12/05 12:34:32;;;;;;;73.70;60.90;;;;;;;-2.47;100.00;100174.70;110534;1261;23753;-78
2023/12/05 12:37:37;;;;;;;73.40;57.30;;;;;;;-2.47;100.00;100172.83;110857;1262;21983;-80
2023/12/05 12:40:50;;;;;;;75.10;56.90;;;;;;;-2.41;100.00;100166.42;110221;1265;21975;-78
2023/12/05 12:43:45;;;;;;;78.60;56.20;;;;;;;-2.35;100.00;100166.50;110087;1265;23642;-79
2023/12/05 12:46:32;;;;;;;;;;;;;;;;;;;;;
2023/12/05 12:49:30;;;;;;;78.20;59.00;;;;;;;-2.30;100.00;100165.69;110245;1265;22859;-83
2023/12/05 12:52:56;;;;;;;;;;;;;;;;;;;;;
2023/12/05 13:00:48;;;;;;;;;;;;;;;;;;;;;
2023/12/05 13:05:11;;;;;;;;;;;;;;;;;;;;;
2023/12/05 13:23:22;;;;;;;84.30;67.70;;;;;;;-0.82;100.00;100156.09;110281;1261;549798;-77
2023/12/05 13:32:55;;;;;;;;;;;;;;;;;;;;;
2023/12/05 13:36:02;;;;;;;;;;;;;;;;;;;;;
2023/12/05 13:40:06;;;;;;;85.10;64.50;;;;;;;-1.94;100.00;100179.54;108829;1278;23723;-78
2023/12/05 14:02:21;;;;;;;96.40;70.70;;;;;;;-1.15;100.00;100191.13;106007;1285;21998;-81
2023/12/05 14:09:56;;;;;;;;;;;;;;;;;;;;;
2023/12/05 14:13:04;;;;;;;102.70;73.40;;;;;;;-2.27;100.00;100198.12;107344;1300;22054;-80
2023/12/05 14:16:16;;;;;;;;;;;;;;;;;;;;;
2023/12/05 14:19:11;;;;;;;108.30;74.50;;;;;;;-2.40;100.00;100199.15;106679;1304;22033;-80
2023/12/05 14:22:17;;;;;;;;;;;;;;;;;;;;;
2023/12/05 14:25:08;;;;;;;;;;;;;;;;;;;;;
2023/12/05 14:28:46;;;;;;;;;;;;;;;;;;;;;
2023/12/05 14:31:58;;;;;;;;;;;;;;;;;;;;;
2023/12/05 14:34:46;;;;;;;107.30;73.70;;;;;;;-2.72;100.00;100213.05;107540;1298;22028;-81
2023/12/05 14:38:15;;;;;;;;;;;;;;;;;;;;;
2023/12/05 14:41:55;;;;;;;;;;;;;;;;;;;;;
2023/12/05 14:44:57;;;;;;;101.40;73.00;;;;;;;-2.90;100.00;100217.38;108177;1290;23725;-78
2023/12/05 14:47:58;;;;;;;99.70;72.80;;;;;;;-2.91;100.00;100216.00;108280;1285;22740;-82
2023/12/05 14:52:19;;;;;;;101.20;73.80;;;;;;;-2.93;100.00;100214.29;108634;1283;22481;-79
2023/12/05 14:55:54;;;;;;;;;;;;;;;;;;;;;
2023/12/05 15:00:02;;;;;;;;;;;;;;;;;;;;;
2023/12/05 15:03:11;;;;;;;;;;;;;;;;;;;;;
2023/12/05 15:06:06;;;;;;;101.40;74.60;;;;;;;-3.14;100.00;100216.67;108569;1284;23534;-78
2023/12/05 15:08:43;;;;;;;103.00;73.20;;;;;;;-3.13;100.00;100221.64;108478;1284;22355;-78
2023/12/05 15:11:33;;;;;;;112.40;79.80;;;;;;;-3.17;100.00;100219.19;108439;1285;22004;-76
2023/12/05 15:14:31;;;;;;;;;;;;;;;;;;;;;
2023/12/05 15:17:47;;;;;;;103.60;74.50;;;;;;;-3.21;100.00;100220.49;108748;1279;22076;-79
2023/12/05 15:20:26;;;;;;;103.70;76.10;;;;;;;-3.21;100.00;100220.50;108616;1284;22094;-77
2023/12/05 15:23:15;;;;;;;104.60;77.50;;;;;;;-3.36;100.00;100191.33;108510;1280;21989;-78
2023/12/05 15:26:23;;;;;;;113.40;79.00;;;;;;;-3.36;100.00;100197.11;108961;1276;23733;-79
2023/12/05 15:29:36;;;;;;;108.80;77.80;;;;;;;-3.22;100.00;100218.94;109096;1276;21989;-77
2023/12/05 15:32:28;;;;;;;112.10;81.60;;;;;;;-3.23;100.00;100226.42;108691;1280;22103;-78
2023/12/05 15:35:16;;;;;;;115.40;85.70;;;;;;;-3.24;100.00;100227.09;108631;1284;22691;-76
2023/12/05 15:38:14;;;;;;;117.70;84.80;;;;;;;-3.23;100.00;100226.08;107969;1281;22326;-81
2023/12/05 15:40:58;;;;;;;114.30;81.30;;;;;;;-3.20;100.00;100225.45;109515;1273;21996;-83
2023/12/05 15:44:38;;;;;;;;;;;;;;;;;;;;;
2023/12/05 15:51:52;;;;;;;112.50;80.40;;;;;;;-3.26;100.00;100226.20;108778;1285;22045;-78
2023/12/05 15:54:39;;;;;;;121.80;83.10;;;;;;;-3.21;100.00;100222.89;108502;1288;22005;-80
2023/12/05 15:57:35;;;;;;;123.50;84.50;;;;;;;-3.16;100.00;100222.10;108303;1291;22018;-78
2023/12/05 16:00:58;;;;;;;112.70;79.40;;;;;;;-3.17;100.00;100221.93;108016;1291;23631;-82
2023/12/05 16:04:29;;;;;;;121.10;82.80;;;;;;;-3.18;100.00;100224.98;108029;1294;23629;-79
2023/12/05 16:07:11;;;;;;;117.90;82.10;;;;;;;-3.20;100.00;100223.58;108052;1291;22015;-81